Time;durP1;ratioP1;P1;durP2;ratioP2;P2;SDS_P1;SDS_P2;PMS_P1;PMS_P2;Temp;Humidity;BMP_temperature;BMP_pressure;BME280_temperature;BME280_humidity;BME280_pressure;Samples;Min_cycle;Max_cycle;Signal;HPM_P1;HPM_P2
2022/11/11 00:00:33;;;;;;;12.52;8.35;;;11.30;99.90;;;;;;4939027;29;20075;-83
2022/11/11 00:02:59;;;;;;;12.93;8.10;;;11.30;99.90;;;;;;4956493;29;20051;-85
2022/11/11 00:05:26;;;;;;;14.98;8.30;;;11.20;99.90;;;;;;4938155;29;20047;-83
2022/11/11 00:07:52;;;;;;;13.07;7.90;;;11.20;99.90;;;;;;4940217;29;20058;-83
2022/11/11 00:10:18;;;;;;;14.43;8.07;;;11.20;99.90;;;;;;4955326;29;20040;-83
2022/11/11 00:12:44;;;;;;;19.75;8.50;;;11.20;99.90;;;;;;4919050;29;20050;-83
2022/11/11 00:15:10;;;;;;;17.17;8.30;;;11.20;99.90;;;;;;4908324;29;20039;-82
2022/11/11 00:25:53;;;;;;;16.63;8.32;;;11.20;99.90;;;;;;4942016;29;20483;-83
2022/11/11 00:28:19;;;;;;;17.70;8.13;;;11.20;99.90;;;;;;4923353;29;20058;-83
2022/11/11 00:30:45;;;;;;;15.20;8.32;;;11.20;99.90;;;;;;4922326;29;20480;-83
2022/11/11 00:33:10;;;;;;;17.52;7.72;;;11.20;99.90;;;;;;4955558;29;20043;-83
2022/11/11 00:35:54;;;;;;;11.63;8.02;;;11.20;99.90;;;;;;4939326;29;20399;-84
2022/11/11 00:41:04;;;;;;;17.85;7.90;;;11.20;99.90;;;;;;4953340;29;20039;-83
2022/11/11 00:43:30;;;;;;;15.55;9.00;;;11.20;99.90;;;;;;4939199;29;20506;-83
2022/11/11 00:50:57;;;;;;;14.98;8.38;;;11.20;99.90;;;;;;4923389;29;20051;-83
2022/11/11 00:51:26;;;;;;;15.25;8.85;;;11.20;99.90;;;;;;4953564;29;20294;-84
2022/11/11 00:53:52;;;;;;;15.18;8.50;;;11.10;99.90;;;;;;4899592;29;20056;-84
2022/11/11 00:56:18;;;;;;;15.95;8.55;;;11.10;99.90;;;;;;4932699;29;20047;-83
2022/11/11 00:58:43;;;;;;;13.85;8.52;;;11.10;99.90;;;;;;4921595;29;20046;-83
2022/11/11 01:01:09;;;;;;;16.30;9.35;;;11.10;99.90;;;;;;4907164;29;20130;-84
2022/11/11 01:03:35;;;;;;;16.73;9.27;;;11.00;99.90;;;;;;4938673;29;20049;-82
2022/11/11 01:06:02;;;;;;;18.27;9.20;;;10.90;99.90;;;;;;4923213;29;20142;-84
2022/11/11 01:08:28;;;;;;;19.20;9.93;;;10.90;99.90;;;;;;4922863;29;20069;-83
2022/11/11 01:10:54;;;;;;;15.80;9.35;;;11.10;99.90;;;;;;4938278;29;20039;-83
2022/11/11 01:13:26;;;;;;;20.15;10.55;;;10.80;99.90;;;;;;4938731;29;20042;-83
2022/11/11 01:16:01;;;;;;;19.35;9.85;;;10.80;99.90;;;;;;4954201;29;20051;-83
2022/11/11 01:18:27;;;;;;;20.08;10.45;;;10.80;99.90;;;;;;4938849;29;20084;-83
2022/11/11 01:21:18;;;;;;;15.60;10.02;;;10.70;99.90;;;;;;4929453;29;20039;-83
2022/11/11 01:23:45;;;;;;;18.42;10.70;;;10.70;99.90;;;;;;4946986;29;20047;-84
2022/11/11 01:26:20;;;;;;;14.82;10.05;;;10.70;99.90;;;;;;4919274;29;20047;-83
2022/11/11 01:28:51;;;;;;;19.67;11.48;;;10.60;99.90;;;;;;4936012;29;20043;-84
2022/11/11 01:31:18;;;;;;;19.15;10.90;;;10.50;99.90;;;;;;4937801;29;20106;-83
2022/11/11 01:33:43;;;;;;;17.92;10.95;;;10.60;99.90;;;;;;4938347;29;20173;-83
2022/11/11 01:36:12;;;;;;;17.52;10.45;;;10.50;99.90;;;;;;4922084;29;20082;-83
2022/11/11 01:38:38;;;;;;;19.27;11.88;;;10.50;99.90;;;;;;4938175;29;20137;-84
2022/11/11 01:43:50;;;;;;;17.97;12.07;;;10.40;99.90;;;;;;4953975;29;20054;-84
2022/11/11 01:46:30;;;;;;;21.42;12.55;;;10.40;99.90;;;;;;4953839;29;20055;-83
2022/11/11 01:49:20;;;;;;;19.23;11.57;;;10.90;99.90;;;;;;4948880;29;20051;-83
2022/11/11 01:51:48;;;;;;;22.30;12.73;;;11.70;99.90;;;;;;4947783;29;20041;-83
2022/11/11 01:54:25;;;;;;;24.95;14.60;;;10.40;99.90;;;;;;4938012;29;20070;-84
2022/11/11 01:56:58;;;;;;;26.90;14.63;;;10.40;99.90;;;;;;4937585;29;20632;-83
2022/11/11 01:59:25;;;;;;;23.10;14.68;;;10.30;99.90;;;;;;4953842;29;20126;-83
2022/11/11 02:01:51;;;;;;;28.30;15.95;;;10.20;99.90;;;;;;4922370;29;20054;-83
2022/11/11 02:07:06;;;;;;;22.85;15.02;;;10.30;99.90;;;;;;4939541;29;20102;-83
2022/11/11 02:09:33;;;;;;;22.92;15.65;;;10.30;99.90;;;;;;4937901;29;20039;-84
2022/11/11 02:14:52;;;;;;;27.75;17.52;;;10.30;99.90;;;;;;4962780;28;20043;-83
2022/11/11 02:17:18;;;;;;;26.45;17.13;;;10.30;99.90;;;;;;4938128;29;20043;-83
2022/11/11 02:19:56;;;;;;;28.60;16.08;;;10.30;99.90;;;;;;4942105;29;20396;-83
2022/11/11 02:22:30;;;;;;;23.42;16.88;;;10.30;99.90;;;;;;4941551;29;20054;-83
2022/11/11 02:24:58;;;;;;;25.55;15.77;;;10.30;99.90;;;;;;4957016;29;20043;-83
2022/11/11 02:27:26;;;;;;;27.77;18.50;;;10.20;99.90;;;;;;4941390;29;20049;-83
2022/11/11 02:29:54;;;;;;;25.90;17.67;;;10.20;99.90;;;;;;4941632;29;20110;-83
2022/11/11 02:32:20;;;;;;;26.77;17.88;;;10.20;99.90;;;;;;4940408;29;20054;-83
2022/11/11 02:34:45;;;;;;;28.45;18.60;;;10.40;99.90;;;;;;4938455;29;20039;-83
2022/11/11 02:37:12;;;;;;;23.60;17.58;;;10.30;99.90;;;;;;4916341;29;20123;-83
2022/11/11 02:39:43;;;;;;;29.92;18.05;;;10.20;99.90;;;;;;4936635;29;20039;-83
2022/11/11 02:42:12;;;;;;;32.28;18.75;;;10.20;99.90;;;;;;4941183;29;20047;-83
2022/11/11 02:44:38;;;;;;;28.38;18.70;;;10.20;99.90;;;;;;4940897;29;20126;-83
2022/11/11 02:47:04;;;;;;;29.05;19.27;;;10.20;99.90;;;;;;4957025;29;20118;-83
2022/11/11 02:49:29;;;;;;;30.25;18.75;;;10.10;99.90;;;;;;4925173;29;20039;-83
2022/11/11 02:51:55;;;;;;;26.83;17.98;;;10.20;99.90;;;;;;4921383;29;20037;-83
2022/11/11 02:54:21;;;;;;;27.73;18.85;;;10.20;99.90;;;;;;4940694;29;20098;-83
2022/11/11 02:59:30;;;;;;;34.45;19.15;;;10.20;99.90;;;;;;4943186;29;20407;-83
2022/11/11 03:01:56;;;;;;;30.05;20.30;;;10.70;99.90;;;;;;4956412;29;20131;-83
2022/11/11 03:04:22;;;;;;;33.92;19.90;;;10.10;99.90;;;;;;4936901;29;20039;-83
2022/11/11 03:06:47;;;;;;;31.92;20.27;;;10.10;99.90;;;;;;4937787;29;20118;-83
2022/11/11 03:09:13;;;;;;;27.85;20.40;;;10.10;99.90;;;;;;4921637;29;20378;-83
2022/11/11 03:11:39;;;;;;;29.98;20.40;;;10.20;99.90;;;;;;4916168;29;20473;-83
2022/11/11 03:14:06;;;;;;;27.42;18.98;;;10.10;99.90;;;;;;4940800;28;20047;-83
2022/11/11 03:19:17;;;;;;;32.25;20.95;;;10.10;99.90;;;;;;4953931;29;20526;-83
2022/11/11 03:21:43;;;;;;;29.70;20.45;;;10.10;99.90;;;;;;4911429;29;20043;-83
2022/11/11 03:24:08;;;;;;;31.85;20.63;;;10.10;99.90;;;;;;4925832;29;20046;-84
2022/11/11 03:26:34;;;;;;;32.10;20.88;;;10.10;99.90;;;;;;4958746;29;20035;-83
2022/11/11 03:29:00;;;;;;;27.10;19.95;;;10.10;99.90;;;;;;4961602;29;20050;-83
2022/11/11 03:31:26;;;;;;;28.23;19.98;;;10.70;99.90;;;;;;4954458;28;20039;-83
2022/11/11 03:33:51;;;;;;;34.28;21.45;;;10.00;99.90;;;;;;4940782;28;20043;-83
2022/11/11 03:36:17;;;;;;;28.15;20.15;;;10.10;99.90;;;;;;4940566;29;20046;-83
2022/11/11 03:38:43;;;;;;;31.33;21.65;;;10.00;99.90;;;;;;4941107;29;20043;-84
2022/11/11 03:41:08;;;;;;;36.58;22.15;;;10.00;99.90;;;;;;4924117;29;20607;-83
2022/11/11 03:43:34;;;;;;;31.67;21.08;;;10.10;99.90;;;;;;4940087;29;20047;-83
2022/11/11 03:46:02;;;;;;;31.05;21.13;;;10.00;99.90;;;;;;4924274;29;20047;-84
2022/11/11 03:48:32;;;;;;;32.42;20.67;;;10.10;99.90;;;;;;4940144;29;20066;-83
2022/11/11 03:50:57;;;;;;;33.47;22.13;;;10.20;99.90;;;;;;4956424;29;20046;-83
2022/11/11 03:53:23;;;;;;;36.60;22.95;;;10.10;99.90;;;;;;4909220;29;20051;-83
2022/11/11 03:55:50;;;;;;;38.92;22.00;;;10.20;99.90;;;;;;4949002;29;20043;-83
2022/11/11 03:58:17;;;;;;;36.08;22.73;;;10.20;99.90;;;;;;4940053;29;20542;-83
2022/11/11 04:00:43;;;;;;;32.67;22.33;;;10.20;99.90;;;;;;4952996;29;20046;-83
2022/11/11 04:11:41;;;;;;;35.83;21.38;;;10.30;99.90;;;;;;4969985;28;20051;-83
2022/11/11 04:16:53;;;;;;;30.27;21.42;;;10.40;99.90;;;;;;4956075;29;20102;-83
2022/11/11 04:22:03;;;;;;;35.22;23.30;;;10.40;99.90;;;;;;4926822;29;20052;-83
2022/11/11 04:27:16;;;;;;;33.08;23.35;;;10.40;99.90;;;;;;4941521;29;20086;-84
2022/11/11 04:29:42;;;;;;;32.22;22.60;;;10.50;99.90;;;;;;4939355;29;20069;-83
2022/11/11 04:35:00;;;;;;;34.47;23.08;;;10.50;99.90;;;;;;4968085;28;20039;-84
2022/11/11 04:37:30;;;;;;;29.85;22.85;;;10.50;99.90;;;;;;4934228;28;20047;-84
2022/11/11 04:42:40;;;;;;;34.40;23.83;;;10.50;99.90;;;;;;4941388;29;20047;-84
2022/11/11 04:45:27;;;;;;;32.17;23.02;;;10.50;99.90;;;;;;4939029;29;20043;-84
2022/11/11 04:47:52;;;;;;;40.70;23.88;;;10.50;99.90;;;;;;4925854;29;20039;-84
2022/11/11 04:50:18;;;;;;;38.13;24.02;;;10.50;99.90;;;;;;4937829;29;20039;-83
2022/11/11 04:52:44;;;;;;;37.45;22.13;;;10.50;99.90;;;;;;4938682;29;20528;-84
2022/11/11 04:57:53;;;;;;;32.58;21.90;;;10.50;99.90;;;;;;4941102;29;20093;-84
2022/11/11 05:00:19;;;;;;;34.13;23.80;;;10.40;99.90;;;;;;4907255;29;20047;-84
2022/11/11 05:08:54;;;;;;;35.90;23.15;;;10.50;99.90;;;;;;4954284;29;20043;-84
2022/11/11 05:11:03;;;;;;;34.30;23.27;;;10.40;99.90;;;;;;4954583;29;20053;-84
2022/11/11 05:21:47;;;;;;;35.38;24.00;;;10.40;99.90;;;;;;4941415;29;20042;-84
2022/11/11 05:27:16;;;;;;;37.05;23.27;;;10.90;99.90;;;;;;4861520;29;20049;-84
2022/11/11 05:29:42;;;;;;;35.85;23.02;;;10.50;99.90;;;;;;4844877;29;20117;-84
2022/11/11 05:32:08;;;;;;;35.78;23.27;;;10.40;99.90;;;;;;4888782;29;20044;-84
2022/11/11 05:34:34;;;;;;;36.92;22.55;;;10.50;99.90;;;;;;4953736;29;20035;-84
2022/11/11 05:36:59;;;;;;;34.65;22.77;;;10.50;99.90;;;;;;4922120;29;20046;-84
2022/11/11 05:39:25;;;;;;;38.38;23.98;;;10.50;99.90;;;;;;4921922;29;20143;-83
2022/11/11 05:41:51;;;;;;;38.33;22.50;;;10.60;99.90;;;;;;4922460;29;20039;-84
2022/11/11 05:44:17;;;;;;;32.08;23.15;;;10.50;99.90;;;;;;4910164;29;20043;-84
2022/11/11 05:46:42;;;;;;;32.90;23.15;;;10.50;99.90;;;;;;4937835;29;20062;-84
2022/11/11 05:49:14;;;;;;;34.53;23.27;;;10.50;99.90;;;;;;4921974;28;20062;-84
2022/11/11 05:51:39;;;;;;;32.65;22.20;;;10.50;99.90;;;;;;4940345;29;20035;-84
2022/11/11 05:54:05;;;;;;;30.88;21.50;;;11.00;99.90;;;;;;4925934;29;20122;-84
2022/11/11 05:56:31;;;;;;;30.70;21.75;;;10.50;99.90;;;;;;4941725;29;20043;-83
2022/11/11 05:58:57;;;;;;;35.60;22.20;;;10.50;99.90;;;;;;4954829;29;20139;-84
2022/11/11 06:01:23;;;;;;;33.33;21.73;;;10.50;99.90;;;;;;4926165;29;20039;-84
2022/11/11 06:03:49;;;;;;;32.15;20.92;;;10.60;99.90;;;;;;4941837;29;20122;-84
2022/11/11 06:06:14;;;;;;;32.08;21.42;;;10.60;99.90;;;;;;4941361;29;20138;-84
2022/11/11 06:08:40;;;;;;;32.83;21.15;;;10.60;99.90;;;;;;4925774;29;20039;-84
2022/11/11 06:11:07;;;;;;;35.85;20.60;;;10.60;99.90;;;;;;4941533;29;20106;-84
2022/11/11 06:13:33;;;;;;;34.10;20.17;;;10.70;99.90;;;;;;4949697;29;20070;-83
2022/11/11 06:15:59;;;;;;;32.45;20.75;;;10.60;99.90;;;;;;4941279;29;20074;-85
2022/11/11 06:18:25;;;;;;;34.65;21.10;;;10.60;99.90;;;;;;4941588;29;20050;-85
2022/11/11 06:20:55;;;;;;;29.73;19.58;;;10.60;99.90;;;;;;4910097;29;20097;-84
2022/11/11 06:23:22;;;;;;;29.17;18.65;;;10.60;99.90;;;;;;4939341;29;20139;-84
2022/11/11 06:28:32;;;;;;;32.97;20.20;;;10.60;99.90;;;;;;4943935;29;20051;-84
2022/11/11 06:30:58;;;;;;;33.40;20.35;;;10.60;99.90;;;;;;4934805;29;20047;-84
2022/11/11 06:33:24;;;;;;;30.42;19.70;;;10.60;99.90;;;;;;4940394;29;20040;-84
2022/11/11 06:35:50;;;;;;;30.08;18.67;;;10.60;99.90;;;;;;4922785;29;20043;-84
2022/11/11 06:38:16;;;;;;;34.45;20.50;;;10.60;99.90;;;;;;4957047;29;20047;-84
2022/11/11 06:40:42;;;;;;;28.35;19.52;;;10.60;99.90;;;;;;4925443;29;20179;-83
2022/11/11 06:43:08;;;;;;;29.98;19.75;;;10.60;99.90;;;;;;4925712;29;20055;-83
2022/11/11 06:45:35;;;;;;;25.60;17.42;;;10.70;99.90;;;;;;4941438;29;20126;-84
2022/11/11 06:48:01;;;;;;;35.35;20.33;;;10.60;99.90;;;;;;4924738;29;20047;-84
2022/11/11 06:50:28;;;;;;;33.17;20.10;;;11.00;99.90;;;;;;4921387;29;20499;-83
2022/11/11 06:52:54;;;;;;;29.52;19.60;;;10.70;99.90;;;;;;4930901;29;20048;-84
2022/11/11 06:55:20;;;;;;;34.38;19.83;;;10.70;99.90;;;;;;4966896;28;20058;-84
2022/11/11 06:57:46;;;;;;;26.73;18.55;;;10.70;99.90;;;;;;4938297;29;20379;-83
2022/11/11 07:00:12;;;;;;;27.48;19.58;;;10.70;99.90;;;;;;4920843;29;20055;-83
2022/11/11 07:02:38;;;;;;;27.33;18.98;;;10.60;99.90;;;;;;4929510;29;20043;-84
2022/11/11 07:05:04;;;;;;;27.10;18.75;;;10.60;99.90;;;;;;4958255;29;20043;-84
2022/11/11 07:07:30;;;;;;;33.17;20.27;;;10.70;99.90;;;;;;4925609;29;20039;-84
2022/11/11 07:09:56;;;;;;;31.88;18.88;;;10.70;99.90;;;;;;4925859;29;20377;-84
2022/11/11 07:12:23;;;;;;;25.45;18.98;;;10.70;99.90;;;;;;4941703;29;20511;-83
2022/11/11 07:14:48;;;;;;;30.45;18.92;;;10.70;99.90;;;;;;4925403;29;20095;-84
2022/11/11 07:17:14;;;;;;;24.48;16.40;;;10.80;99.90;;;;;;4909053;29;20517;-84
2022/11/11 07:19:40;;;;;;;28.48;18.10;;;11.60;99.90;;;;;;4940850;29;20045;-84
2022/11/11 07:22:05;;;;;;;31.80;19.13;;;10.70;99.90;;;;;;4972658;28;20122;-84
2022/11/11 07:24:31;;;;;;;30.80;18.27;;;10.70;99.90;;;;;;4931936;29;20047;-84
2022/11/11 07:26:58;;;;;;;29.27;19.42;;;10.70;99.90;;;;;;4940005;29;20046;-84
2022/11/11 07:29:24;;;;;;;28.60;18.25;;;10.70;99.90;;;;;;4939804;29;20039;-84
2022/11/11 07:31:50;;;;;;;27.00;17.73;;;10.70;99.90;;;;;;4924395;29;20049;-84
2022/11/11 07:34:15;;;;;;;27.90;17.92;;;11.30;99.90;;;;;;4925596;29;20046;-84
2022/11/11 07:36:41;;;;;;;30.90;18.42;;;10.70;99.90;;;;;;4925323;29;20043;-84
2022/11/11 07:39:07;;;;;;;26.77;18.33;;;10.80;99.90;;;;;;4941201;29;20043;-84
2022/11/11 07:41:32;;;;;;;27.75;17.98;;;10.80;99.90;;;;;;4935479;29;20046;-85
2022/11/11 07:43:58;;;;;;;28.17;17.98;;;10.80;99.90;;;;;;4945390;29;20031;-83
2022/11/11 07:46:24;;;;;;;24.92;17.77;;;10.80;99.90;;;;;;4949868;29;20043;-84
2022/11/11 07:48:50;;;;;;;29.05;18.42;;;10.80;99.90;;;;;;4942901;29;20038;-84
2022/11/11 07:51:16;;;;;;;26.88;18.10;;;10.80;99.90;;;;;;4918319;29;20043;-84
2022/11/11 07:53:42;;;;;;;25.35;16.40;;;10.80;99.90;;;;;;4938736;29;20062;-83
2022/11/11 07:56:07;;;;;;;25.20;17.02;;;10.90;99.90;;;;;;4924641;29;20043;-84
2022/11/11 07:58:33;;;;;;;22.83;16.35;;;10.80;99.90;;;;;;4924449;29;20046;-84
2022/11/11 08:01:01;;;;;;;24.05;17.70;;;10.80;99.90;;;;;;4924902;29;20046;-84
2022/11/11 08:03:27;;;;;;;24.90;16.73;;;10.80;99.90;;;;;;4940034;29;20087;-84
2022/11/11 08:05:54;;;;;;;26.10;17.58;;;10.90;99.90;;;;;;4939767;29;20035;-83
2022/11/11 08:08:23;;;;;;;30.95;16.77;;;10.80;99.90;;;;;;4924506;29;20039;-84
2022/11/11 08:10:53;;;;;;;24.42;16.60;;;11.00;99.90;;;;;;4939568;29;20043;-84
2022/11/11 08:16:05;;;;;;;23.80;16.35;;;10.90;99.90;;;;;;4938161;29;20047;-84
2022/11/11 08:18:31;;;;;;;24.45;16.70;;;10.90;99.90;;;;;;4938599;29;20114;-87
2022/11/11 08:20:57;;;;;;;23.55;14.45;;;10.90;99.90;;;;;;4906025;29;20176;-83
2022/11/11 08:23:31;;;;;;;23.88;16.00;;;11.00;99.90;;;;;;4938128;29;20084;-84
2022/11/11 08:26:05;;;;;;;26.15;16.10;;;11.00;99.90;;;;;;4924326;29;20050;-84
2022/11/11 08:28:33;;;;;;;19.05;14.05;;;10.90;99.90;;;;;;4955402;29;20039;-84
2022/11/11 08:31:00;;;;;;;20.52;14.15;;;10.90;99.90;;;;;;4923007;29;20388;-84
2022/11/11 08:33:27;;;;;;;24.00;15.68;;;10.90;99.90;;;;;;4939097;29;20043;-84
2022/11/11 08:35:53;;;;;;;22.13;14.82;;;11.00;99.90;;;;;;4937182;29;20043;-84
2022/11/11 08:38:22;;;;;;;21.13;15.35;;;11.00;99.90;;;;;;4955387;29;20043;-84
2022/11/11 08:40:49;;;;;;;26.20;14.93;;;11.00;99.90;;;;;;4939376;29;20031;-84
2022/11/11 08:43:15;;;;;;;25.10;15.45;;;11.00;99.90;;;;;;4922577;29;20095;-84
2022/11/11 08:45:40;;;;;;;19.88;13.57;;;11.00;99.90;;;;;;4923215;29;20047;-84
2022/11/11 08:48:08;;;;;;;19.25;13.68;;;11.00;99.90;;;;;;4923192;29;20698;-84
2022/11/11 08:50:38;;;;;;;21.70;14.18;;;11.00;99.90;;;;;;4938782;29;20146;-84
2022/11/11 08:53:06;;;;;;;21.77;13.73;;;11.20;99.90;;;;;;4954495;29;20047;-84
2022/11/11 08:55:33;;;;;;;21.67;13.07;;;11.10;99.90;;;;;;4922726;29;20098;-84
2022/11/11 08:58:01;;;;;;;18.92;14.10;;;11.10;99.90;;;;;;4923532;29;20129;-84
2022/11/11 09:00:27;;;;;;;22.63;13.90;;;11.10;99.90;;;;;;4939213;29;20196;-84
2022/11/11 09:02:53;;;;;;;20.83;13.73;;;11.10;99.90;;;;;;4948047;29;20134;-83
2022/11/11 09:05:18;;;;;;;21.70;13.80;;;11.20;99.90;;;;;;4938816;29;20078;-84
2022/11/11 09:07:44;;;;;;;22.33;13.73;;;11.20;99.90;;;;;;4939102;29;20389;-84
2022/11/11 09:10:10;;;;;;;19.45;13.30;;;11.20;99.90;;;;;;4922732;29;20050;-84
2022/11/11 09:12:36;;;;;;;22.70;13.32;;;11.20;99.90;;;;;;4954792;29;20035;-84
2022/11/11 09:15:02;;;;;;;24.65;13.88;;;11.20;99.90;;;;;;4923207;29;20039;-84
2022/11/11 09:17:28;;;;;;;21.27;13.60;;;11.20;99.90;;;;;;4923164;29;20043;-84
2022/11/11 09:19:53;;;;;;;22.58;13.00;;;11.30;99.90;;;;;;4907671;29;20574;-83
2022/11/11 09:22:19;;;;;;;21.70;13.18;;;11.30;99.90;;;;;;4922708;29;20043;-84
2022/11/11 09:24:45;;;;;;;21.35;13.10;;;11.40;99.90;;;;;;4937956;29;20101;-84
2022/11/11 09:27:10;;;;;;;22.15;13.77;;;11.30;99.90;;;;;;4918954;29;20488;-84
2022/11/11 09:29:36;;;;;;;18.45;13.77;;;11.40;99.90;;;;;;4938215;29;20098;-84
2022/11/11 09:32:02;;;;;;;19.73;13.38;;;11.20;99.90;;;;;;4954131;29;20039;-84
2022/11/11 09:34:28;;;;;;;20.25;13.85;;;11.40;99.90;;;;;;4950952;29;20035;-83
2022/11/11 09:36:54;;;;;;;18.83;13.48;;;11.50;99.90;;;;;;4931645;29;20071;-84
2022/11/11 09:39:19;;;;;;;24.08;13.52;;;11.60;99.90;;;;;;4953314;29;20103;-84
2022/11/11 09:42:16;;;;;;;18.73;11.18;;;11.60;99.90;;;;;;4940684;29;20047;-84
2022/11/11 09:45:01;;;;;;;;;;;11.70;99.90;;;;;;4936914;29;20051;-84
2022/11/11 09:47:59;;;;;;;18.02;12.98;;;11.70;99.90;;;;;;4937633;29;20406;-84
2022/11/11 09:50:29;;;;;;;21.17;13.77;;;11.80;99.90;;;;;;4951793;28;20515;-85
2022/11/11 09:53:10;;;;;;;18.15;12.35;;;11.90;99.90;;;;;;4929555;29;20066;-85
2022/11/11 09:55:44;;;;;;;18.00;12.15;;;12.00;99.90;;;;;;4938422;29;20071;-86
2022/11/11 09:58:12;;;;;;;15.95;9.45;;;12.00;99.90;;;;;;4933663;29;20039;-84
2022/11/11 10:00:42;;;;;;;19.52;12.20;;;12.00;99.90;;;;;;4937880;29;20099;-84
2022/11/11 10:03:11;;;;;;;18.88;12.52;;;12.10;99.90;;;;;;4954014;29;20110;-84
2022/11/11 10:05:57;;;;;;;15.82;12.15;;;12.20;99.90;;;;;;4938396;29;20043;-85
2022/11/11 10:08:40;;;;;;;20.48;12.98;;;12.30;99.90;;;;;;4937594;29;20047;-85
2022/11/11 10:11:13;;;;;;;19.48;13.15;;;12.50;99.90;;;;;;4953597;29;20067;-84
2022/11/11 10:13:39;;;;;;;16.40;11.27;;;12.60;99.90;;;;;;4942118;29;20043;-84
2022/11/11 10:16:24;;;;;;;17.42;12.75;;;12.70;99.90;;;;;;4907328;29;20043;-84
2022/11/11 10:19:20;;;;;;;16.67;12.15;;;12.70;99.90;;;;;;4932153;29;20074;-84
2022/11/11 10:21:50;;;;;;;18.30;12.45;;;12.70;99.90;;;;;;4926973;29;20118;-84
2022/11/11 10:24:39;;;;;;;18.27;12.55;;;12.60;99.90;;;;;;4954684;29;20071;-84
2022/11/11 10:27:26;;;;;;;14.98;10.50;;;12.60;99.90;;;;;;4928822;29;20395;-84
2022/11/11 10:29:52;;;;;;;16.58;12.02;;;12.40;99.90;;;;;;4937862;29;20453;-84
2022/11/11 10:32:32;;;;;;;15.27;11.68;;;12.50;99.90;;;;;;4919019;29;20042;-84
2022/11/11 10:35:16;;;;;;;18.65;10.88;;;12.50;99.90;;;;;;4936124;29;20042;-83
2022/11/11 10:37:42;;;;;;;16.33;11.18;;;12.60;99.90;;;;;;4956137;28;20051;-84
2022/11/11 10:40:23;;;;;;;13.60;10.63;;;12.70;99.90;;;;;;4923599;29;20051;-82
2022/11/11 10:42:49;;;;;;;16.50;11.57;;;12.70;99.90;;;;;;4941542;29;20203;-83
2022/11/11 10:45:46;;;;;;;15.95;11.27;;;12.70;99.90;;;;;;4925544;29;20117;-82
2022/11/11 10:48:17;;;;;;;16.23;11.43;;;12.80;99.90;;;;;;4949398;29;20070;-82
2022/11/11 10:50:49;;;;;;;15.38;10.88;;;12.80;99.90;;;;;;4957305;29;20035;-82
2022/11/11 10:53:37;;;;;;;12.77;9.88;;;12.80;99.90;;;;;;4950228;29;20060;-82
2022/11/11 10:56:27;;;;;;;13.57;9.90;;;12.90;99.90;;;;;;4940319;29;20051;-82
2022/11/11 10:59:01;;;;;;;16.02;10.23;;;12.90;99.90;;;;;;4959567;28;20043;-82
2022/11/11 11:02:00;;;;;;;15.38;10.20;;;12.90;99.90;;;;;;4941029;29;20403;-82
2022/11/11 11:05:07;;;;;;;14.27;10.32;;;13.00;99.90;;;;;;4938453;29;20035;-82
2022/11/11 11:07:43;;;;;;;15.88;10.95;;;13.00;99.90;;;;;;4931198;29;20051;-82
2022/11/11 11:10:35;;;;;;;16.42;10.90;;;13.10;99.90;;;;;;4941337;29;20071;-83
2022/11/11 11:13:37;;;;;;;15.07;10.38;;;13.00;99.90;;;;;;4940023;29;20043;-81
2022/11/11 11:16:10;;;;;;;13.77;10.80;;;13.00;99.90;;;;;;4940852;29;20047;-82
2022/11/11 11:18:35;;;;;;;15.75;10.38;;;12.90;99.90;;;;;;4940560;29;20122;-81
2022/11/11 11:21:04;;;;;;;12.77;10.18;;;12.90;99.90;;;;;;4925142;29;20130;-82
2022/11/11 11:23:48;;;;;;;15.80;11.00;;;12.80;99.90;;;;;;4925292;29;20039;-82
2022/11/11 11:26:14;;;;;;;13.27;9.90;;;12.70;99.90;;;;;;4938434;28;20043;-82
2022/11/11 11:28:57;;;;;;;14.40;10.65;;;12.80;99.90;;;;;;4955117;29;20046;-83
2022/11/11 11:31:38;;;;;;;14.73;11.00;;;12.80;99.90;;;;;;4941314;29;20043;-83
2022/11/11 11:34:04;;;;;;;15.20;10.55;;;12.80;99.90;;;;;;4956723;29;20043;-83
2022/11/11 11:36:31;;;;;;;16.13;10.38;;;12.80;99.90;;;;;;4925041;29;20082;-84
2022/11/11 11:38:57;;;;;;;16.45;11.35;;;12.80;99.90;;;;;;4934004;29;20091;-83
2022/11/11 11:41:55;;;;;;;15.57;11.02;;;12.70;99.90;;;;;;4931541;29;20054;-82
2022/11/11 11:44:39;;;;;;;15.77;10.90;;;12.60;99.90;;;;;;4911126;29;20047;-82
2022/11/11 11:47:35;;;;;;;14.95;11.55;;;12.60;99.90;;;;;;4952905;28;20099;-82
2022/11/11 11:50:03;;;;;;;15.55;12.05;;;12.60;99.90;;;;;;4938672;29;20040;-85
2022/11/11 11:52:32;;;;;;;16.27;11.05;;;12.60;99.90;;;;;;4941119;29;20041;-84
2022/11/11 11:55:10;;;;;;;14.02;9.45;;;12.60;99.90;;;;;;4942698;29;20065;-82
2022/11/11 11:57:52;;;;;;;15.05;10.48;;;12.60;99.90;;;;;;4945503;29;20042;-83
2022/11/11 12:00:19;;;;;;;17.20;10.88;;;12.60;99.90;;;;;;4955421;29;20100;-83
2022/11/11 12:03:30;;;;;;;12.77;10.25;;;12.60;99.90;;;;;;4959466;29;20047;-82
2022/11/11 12:06:36;;;;;;;14.35;10.43;;;12.60;99.90;;;;;;4960670;29;20524;-83
2022/11/11 12:09:05;;;;;;;14.10;10.43;;;12.60;99.90;;;;;;4925322;29;20518;-83
2022/11/11 12:11:45;;;;;;;16.23;11.75;;;12.60;99.90;;;;;;4956071;29;20133;-82
2022/11/11 12:14:40;;;;;;;17.23;11.10;;;12.60;99.90;;;;;;4950895;29;20122;-83
2022/11/11 12:17:25;;;;;;;17.60;9.40;;;12.60;99.90;;;;;;4949443;29;20086;-83
2022/11/11 12:20:03;;;;;;;14.68;10.23;;;12.60;99.90;;;;;;4939733;29;20054;-83
2022/11/11 12:23:00;;;;;;;15.63;11.50;;;12.60;99.90;;;;;;4939327;29;20583;-83
2022/11/11 12:25:46;;;;;;;14.50;10.05;;;12.50;99.90;;;;;;4940279;29;20051;-83
2022/11/11 12:28:24;;;;;;;14.15;10.98;;;12.50;99.90;;;;;;4929131;29;20043;-83
2022/11/11 12:31:10;;;;;;;14.77;10.27;;;12.50;99.90;;;;;;4953853;29;20506;-83
2022/11/11 12:34:10;;;;;;;14.35;10.25;;;12.60;99.90;;;;;;4939421;29;20039;-83
2022/11/11 12:37:13;;;;;;;13.73;10.25;;;12.60;99.90;;;;;;4905995;28;20139;-83
2022/11/11 12:40:01;;;;;;;13.73;10.77;;;12.60;99.90;;;;;;4956179;29;20074;-84
2022/11/11 12:42:58;;;;;;;17.85;10.68;;;12.70;99.90;;;;;;4893151;29;20059;-84
2022/11/11 12:45:34;;;;;;;18.70;11.10;;;12.70;99.90;;;;;;4938396;29;20043;-83
2022/11/11 12:48:14;;;;;;;12.95;10.05;;;12.70;99.90;;;;;;4936946;29;20110;-84
2022/11/11 12:50:53;;;;;;;14.18;10.23;;;12.80;99.90;;;;;;4937984;29;20050;-84
2022/11/11 12:53:43;;;;;;;13.05;9.82;;;12.80;99.90;;;;;;4938575;29;20051;-84
2022/11/11 12:56:28;;;;;;;17.35;11.13;;;12.80;99.90;;;;;;4938739;29;20035;-83
2022/11/11 12:59:16;;;;;;;13.45;10.13;;;12.80;99.90;;;;;;4934516;29;20118;-85
2022/11/11 13:01:53;;;;;;;13.50;10.07;;;12.80;99.90;;;;;;4953397;29;20041;-85
2022/11/11 13:04:28;;;;;;;14.27;10.07;;;12.90;99.90;;;;;;4937827;29;20043;-85
2022/11/11 13:07:19;;;;;;;11.63;10.07;;;12.90;99.90;;;;;;4934714;29;20550;-83
2022/11/11 13:10:06;;;;;;;17.40;11.18;;;13.00;99.90;;;;;;4935774;29;20122;-83
2022/11/11 13:12:48;;;;;;;14.35;10.70;;;13.00;99.90;;;;;;4954937;29;20051;-83
2022/11/11 13:15:20;;;;;;;15.90;10.63;;;13.00;99.90;;;;;;4959627;28;20047;-82
2022/11/11 13:17:46;;;;;;;12.63;10.32;;;13.10;99.90;;;;;;4922719;29;20134;-83
2022/11/11 13:20:29;;;;;;;13.93;10.18;;;13.20;99.90;;;;;;4935433;29;20075;-83
2022/11/11 13:22:55;;;;;;;12.95;9.93;;;13.20;99.90;;;;;;4954474;29;20070;-83
2022/11/11 13:25:29;;;;;;;15.25;9.68;;;13.20;99.90;;;;;;4906819;29;20101;-83
2022/11/11 13:28:05;;;;;;;15.38;10.27;;;13.30;99.90;;;;;;4930155;29;20060;-83
2022/11/11 13:31:04;;;;;;;13.32;9.90;;;13.40;99.90;;;;;;4954601;28;20385;-83
2022/11/11 13:33:49;;;;;;;13.32;8.98;;;13.40;99.90;;;;;;4938165;29;20050;-83
2022/11/11 13:36:21;;;;;;;11.60;9.48;;;13.50;99.90;;;;;;4937514;29;20039;-83
2022/11/11 13:38:55;;;;;;;11.48;9.48;;;13.60;99.90;;;;;;4938042;29;20046;-83
2022/11/11 13:41:35;;;;;;;13.75;9.82;;;13.70;99.90;;;;;;4938178;29;20380;-83
2022/11/11 13:44:08;;;;;;;11.65;9.45;;;13.70;99.90;;;;;;4936713;29;20395;-83
2022/11/11 13:46:45;;;;;;;13.70;9.75;;;13.70;99.90;;;;;;4929422;29;20048;-83
2022/11/11 13:49:33;;;;;;;13.90;9.70;;;13.70;99.90;;;;;;4918326;29;20042;-82
2022/11/11 13:52:22;;;;;;;14.85;10.48;;;13.70;99.90;;;;;;4937488;29;20523;-82
2022/11/11 13:54:57;;;;;;;18.77;10.98;;;13.70;99.90;;;;;;4934059;29;20059;-83
2022/11/11 13:57:25;;;;;;;15.98;9.70;;;13.70;99.90;;;;;;4934987;29;20569;-83
2022/11/11 14:00:16;;;;;;;12.65;9.80;;;13.60;99.90;;;;;;4938214;29;20043;-83
2022/11/11 14:02:42;;;;;;;13.50;10.02;;;13.60;99.90;;;;;;4938011;29;20131;-82
2022/11/11 14:05:08;;;;;;;13.10;9.75;;;13.60;99.90;;;;;;4922674;29;20540;-83